createdAt,value
2022-09-13T00:00:05.553Z,15.37
2022-09-13T00:05:07.846Z,15.34
2022-09-13T00:10:09.979Z,15.23
2022-09-13T00:15:11.905Z,14.91
2022-09-13T00:20:13.684Z,14.87
2022-09-13T00:25:15.158Z,14.88
2022-09-13T00:30:16.621Z,14.88
2022-09-13T00:35:18.128Z,14.82
2022-09-13T00:40:20.709Z,14.74
2022-09-13T00:45:22.286Z,14.65
2022-09-13T00:50:54.636Z,14.63
2022-09-13T00:56:19.522Z,14.64
2022-09-13T01:01:26.075Z,14.63
2022-09-13T01:06:32.990Z,14.62
2022-09-13T01:11:49.088Z,14.62
2022-09-13T01:16:50.672Z,14.62
2022-09-13T01:22:15.606Z,14.61
2022-09-13T01:27:40.930Z,14.58
2022-09-13T01:32:54.449Z,14.53
2022-09-13T01:38:26.678Z,14.47
2022-09-13T01:43:54.464Z,14.39
2022-09-13T01:49:06.324Z,14.28
2022-09-13T01:54:21.247Z,14.18
2022-09-13T01:59:32.324Z,14.11
2022-09-13T02:04:40.322Z,14.12
2022-09-13T02:09:46.443Z,14.13
2022-09-13T02:15:04.866Z,14.13
2022-09-13T02:20:13.515Z,14.13
2022-09-13T02:25:18.331Z,14.11
2022-09-13T02:30:21.001Z,14.10
2022-09-13T02:35:45.294Z,14.11
2022-09-13T02:40:58.009Z,14.08
2022-09-13T02:46:26.378Z,14.02
2022-09-13T02:51:46.871Z,13.96
2022-09-13T02:56:56.755Z,13.92
2022-09-13T03:02:09.857Z,13.84
2022-09-13T03:07:13.078Z,13.69
2022-09-13T03:12:46.750Z,13.63
2022-09-13T03:18:05.971Z,13.62
2022-09-13T03:23:46.346Z,13.64
2022-09-13T03:28:47.761Z,13.64
2022-09-13T03:33:58.182Z,13.64
2022-09-13T03:39:17.062Z,13.58
2022-09-13T03:44:21.938Z,13.51
2022-09-13T03:49:26.881Z,13.45
2022-09-13T03:54:34.433Z,13.42
2022-09-13T03:59:38.752Z,13.56
2022-09-13T04:04:41.789Z,13.74
2022-09-13T04:09:43.191Z,13.84
2022-09-13T04:14:45.106Z,13.90
2022-09-13T04:19:47.141Z,13.96
2022-09-13T04:24:48.605Z,13.93
2022-09-13T04:29:50.024Z,13.88
2022-09-13T04:34:51.505Z,13.91
2022-09-13T04:39:53.720Z,13.98
2022-09-13T04:44:55.787Z,14.09
2022-09-13T04:49:57.262Z,14.13
2022-09-13T04:55:01.559Z,14.18
2022-09-13T05:00:04.114Z,14.27
2022-09-13T05:05:05.957Z,14.36
2022-09-13T05:10:08.006Z,14.40
2022-09-13T05:15:10.728Z,14.42
2022-09-13T05:20:12.884Z,14.54
2022-09-13T05:25:14.377Z,14.64
2022-09-13T05:30:16.107Z,14.84
2022-09-13T05:35:17.584Z,14.92
2022-09-13T05:40:19.056Z,15.16
2022-09-13T05:45:20.638Z,15.39
2022-09-13T05:50:45.070Z,15.74
2022-09-13T05:55:43.689Z,16.20
2022-09-13T06:00:45.237Z,16.48
2022-09-13T06:05:46.632Z,16.92
2022-09-13T06:10:59.527Z,18.59
2022-09-13T06:16:02.879Z,19.38
2022-09-13T06:21:20.272Z,22.13
2022-09-13T06:26:24.297Z,24.79
2022-09-13T06:31:28.269Z,27.37
2022-09-13T06:36:29.861Z,29.17
2022-09-13T06:41:31.516Z,28.94
2022-09-13T06:46:35.025Z,29.51
2022-09-13T06:51:36.996Z,31.28
2022-09-13T06:56:39.058Z,31.94
2022-09-13T07:01:44.012Z,32.30
2022-09-13T07:06:48.368Z,34.01
2022-09-13T07:11:51.756Z,33.70
2022-09-13T07:16:53.848Z,30.19
2022-09-13T07:21:56.930Z,26.68
2022-09-13T07:26:58.438Z,25.85
2022-09-13T07:31:59.898Z,25.81
2022-09-13T07:37:02.228Z,25.70
2022-09-13T07:42:04.928Z,25.56
2022-09-13T07:47:06.452Z,25.70
2022-09-13T07:52:07.863Z,25.67
2022-09-13T07:57:09.303Z,25.75
2022-09-13T08:02:18.414Z,26.51
2022-09-13T08:07:19.913Z,27.34
2022-09-13T08:12:21.320Z,28.23
2022-09-13T08:17:22.773Z,28.47
2022-09-13T08:22:24.243Z,28.16
2022-09-13T08:27:25.717Z,27.84
2022-09-13T08:32:27.174Z,27.59
2022-09-13T08:37:28.727Z,28.12
2022-09-13T08:42:47.102Z,29.73
2022-09-13T08:47:52.506Z,31.62
2022-09-13T08:53:19.504Z,31.95
2022-09-13T08:58:26.865Z,32.13
2022-09-13T09:03:43.532Z,31.62
2022-09-13T09:08:54.117Z,30.54
2022-09-13T09:14:16.907Z,29.57
2022-09-13T09:19:21.497Z,29.97
2022-09-13T09:24:25.482Z,30.70
2022-09-13T09:29:32.881Z,31.07
2022-09-13T09:34:48.209Z,31.38
2022-09-13T09:39:51.028Z,31.88
2022-09-13T09:44:57.785Z,31.55
2022-09-13T09:50:11.980Z,31.39
2022-09-13T09:55:27.294Z,30.96
2022-09-13T10:00:32.257Z,31.26
2022-09-13T10:05:35.180Z,30.87
2022-09-13T10:10:43.038Z,30.52
2022-09-13T10:16:25.953Z,30.48
2022-09-13T10:21:27.375Z,28.73
2022-09-13T10:26:33.596Z,27.81
2022-09-13T10:31:40.097Z,27.90
2022-09-13T10:36:55.033Z,28.58
2022-09-13T10:42:03.947Z,29.83
2022-09-13T10:47:11.359Z,30.61
2022-09-13T10:52:35.856Z,30.68
2022-09-13T10:57:37.907Z,30.37
2022-09-13T11:03:13.041Z,30.22
2022-09-13T11:08:40.442Z,30.21
2022-09-13T11:14:09.578Z,29.53
2022-09-13T11:19:30.493Z,29.72
2022-09-13T11:24:47.250Z,30.12
2022-09-13T11:30:10.630Z,30.13
2022-09-13T11:35:29.366Z,30.05
2022-09-13T11:40:36.654Z,30.07
2022-09-13T11:45:50.445Z,29.52
2022-09-13T11:51:11.605Z,29.66
2022-09-13T11:56:20.252Z,28.26
2022-09-13T12:01:27.906Z,27.73
2022-09-13T12:06:35.434Z,27.77
2022-09-13T12:11:41.915Z,27.32
2022-09-13T12:16:48.904Z,27.16
2022-09-13T12:21:53.051Z,27.11
2022-09-13T12:27:28.971Z,27.35
2022-09-13T12:32:31.284Z,27.67
2022-09-13T12:37:50.385Z,27.88
2022-09-13T12:43:12.138Z,28.45
2022-09-13T12:49:03.125Z,28.94
2022-09-13T12:54:31.549Z,29.03
2022-09-13T13:00:13.512Z,29.10
2022-09-13T13:05:33.633Z,29.36
2022-09-13T13:10:38.684Z,29.18
2022-09-13T13:15:47.860Z,29.54
2022-09-13T13:20:54.086Z,29.62
2022-09-13T13:26:23.560Z,29.72
2022-09-13T13:31:25.074Z,29.96
2022-09-13T13:36:33.569Z,30.09
2022-09-13T13:41:36.049Z,30.12
2022-09-13T13:46:37.478Z,30.26
2022-09-13T13:51:38.896Z,30.50
2022-09-13T13:56:49.212Z,30.83
2022-09-13T14:01:55.585Z,30.65
2022-09-13T14:07:19.730Z,30.76
2022-09-13T14:12:29.297Z,30.81
2022-09-13T14:17:55.055Z,30.72
2022-09-13T14:23:17.719Z,30.27
2022-09-13T14:28:22.500Z,29.91
2022-09-13T14:33:34.759Z,29.81
2022-09-13T14:38:36.620Z,29.58
2022-09-13T14:43:38.112Z,29.11
2022-09-13T14:48:47.129Z,28.62
2022-09-13T14:53:53.138Z,28.39
2022-09-13T14:58:59.396Z,28.36
2022-09-13T15:04:03.429Z,28.26
2022-09-13T15:09:10.599Z,28.17
2022-09-13T15:14:24.328Z,28.01
2022-09-13T15:20:04.440Z,28.00
2022-09-13T15:25:06.210Z,27.94
2022-09-13T15:30:24.790Z,27.97
2022-09-13T15:35:34.567Z,27.93
2022-09-13T15:40:45.021Z,27.99
2022-09-13T15:45:46.886Z,27.92
2022-09-13T15:51:13.242Z,27.93
2022-09-13T15:56:25.216Z,28.03
2022-09-13T16:01:27.761Z,28.09
2022-09-13T16:06:29.432Z,28.01
2022-09-13T16:11:31.011Z,27.95
2022-09-13T16:16:32.549Z,27.85
2022-09-13T16:21:33.967Z,27.73
2022-09-13T16:26:35.630Z,27.54
2022-09-13T16:31:37.459Z,27.32
2022-09-13T16:36:38.993Z,27.17
2022-09-13T16:41:40.536Z,27.02
2022-09-13T16:46:42.448Z,26.91
2022-09-13T16:51:44.633Z,26.76
2022-09-13T16:56:46.132Z,26.62
2022-09-13T17:01:47.667Z,26.47
2022-09-13T17:06:49.269Z,26.31
2022-09-13T17:11:51.031Z,26.20
2022-09-13T17:16:54.929Z,26.06
2022-09-13T17:21:57.629Z,25.88
2022-09-13T17:26:59.231Z,25.70
2022-09-13T17:32:02.705Z,25.53
2022-09-13T17:37:05.710Z,25.32
2022-09-13T17:42:07.247Z,25.10
2022-09-13T17:47:08.757Z,24.91
2022-09-13T17:52:10.182Z,24.72
2022-09-13T17:57:14.220Z,24.55
2022-09-13T18:02:15.692Z,24.39
2022-09-13T18:07:17.568Z,24.25
2022-09-13T18:12:19.030Z,24.14
2022-09-13T18:17:20.466Z,23.99
2022-09-13T18:22:21.872Z,23.88
2022-09-13T18:27:23.275Z,23.77
2022-09-13T18:32:24.759Z,23.64
2022-09-13T18:37:26.151Z,23.58
2022-09-13T18:42:31.427Z,23.49
2022-09-13T18:47:34.819Z,23.36
2022-09-13T18:52:39.013Z,23.26
2022-09-13T18:57:40.407Z,23.19
2022-09-13T19:03:02.052Z,23.12
2022-09-13T19:08:07.027Z,23.05
2022-09-13T19:13:08.485Z,22.98
2022-09-13T19:18:09.904Z,22.90
2022-09-13T19:23:11.304Z,22.86
2022-09-13T19:28:12.710Z,22.82
2022-09-13T19:33:15.302Z,22.79
2022-09-13T19:38:16.683Z,22.71
2022-09-13T19:43:18.143Z,22.64
2022-09-13T19:48:38.050Z,22.57
2022-09-13T19:53:56.411Z,22.49
2022-09-13T19:58:59.939Z,22.39
2022-09-13T20:04:06.826Z,22.32
2022-09-13T20:09:09.478Z,22.23
2022-09-13T20:14:16.230Z,22.15
2022-09-13T20:24:41.256Z,22.06
2022-09-13T20:29:42.730Z,22.01
2022-09-13T20:34:44.153Z,21.95
2022-09-13T20:39:45.632Z,21.90
2022-09-13T20:44:47.181Z,21.88
2022-09-13T20:49:48.575Z,21.84
2022-09-13T20:54:50.318Z,21.82
2022-09-13T20:59:51.731Z,21.74
2022-09-13T21:04:53.164Z,21.67
2022-09-13T21:09:54.538Z,21.66
2022-09-13T21:14:56.017Z,21.64
2022-09-13T21:19:59.429Z,21.60
2022-09-13T21:25:00.864Z,21.55
2022-09-13T21:30:02.333Z,21.46
2022-09-13T21:35:04.376Z,21.42
2022-09-13T21:40:06.694Z,21.39
2022-09-13T21:45:08.657Z,21.40
2022-09-13T21:50:10.080Z,21.39
2022-09-13T21:55:11.777Z,21.31
2022-09-13T22:00:14.616Z,21.28
2022-09-13T22:05:34.729Z,21.21
2022-09-13T22:10:36.502Z,21.10
2022-09-13T22:15:37.899Z,21.07
2022-09-13T22:20:39.429Z,21.07
2022-09-13T22:25:42.184Z,21.04
2022-09-13T22:30:43.611Z,20.93
2022-09-13T22:35:45.047Z,20.87
2022-09-13T22:40:55.490Z,20.85
2022-09-13T22:46:04.198Z,20.87
2022-09-13T22:51:07.187Z,20.87
2022-09-13T22:56:10.851Z,20.88
2022-09-13T23:01:14.847Z,20.86
2022-09-13T23:06:21.571Z,20.82
2022-09-13T23:11:28.740Z,20.87
2022-09-13T23:16:32.833Z,20.93
2022-09-13T23:21:37.023Z,20.92
2022-09-13T23:26:38.730Z,20.95
2022-09-13T23:31:40.658Z,20.95
2022-09-13T23:36:44.173Z,20.97
2022-09-13T23:41:47.875Z,20.83
2022-09-13T23:46:49.474Z,20.62
2022-09-13T23:51:51.174Z,20.49
2022-09-13T23:56:52.575Z,20.46
